Flight Track Log - Related Links

Times and Time Zones

All times are in EDT time to prevent confusion due to time zone crossing. See the EJA930 flight status page for this flight to view local times or setup timezone preferences in your user account.

Time Position Orientation Groundspeed Altitude Reporting Facility
EDT Latitude Longitude Course Direction KTS MPH feet Rate Location/Type
Mon 12:59:41 PM 39.6000 -104.8500 59° Northeast 196 226 7,000  Level Denver TRACON
Mon 01:00:49 PM 39.6303 -104.7867 58° Northeast 258 297 9,300 2,241 Climbing Denver Center
Mon 01:02:35 PM 39.6000 -104.6333 104° East 265 305 13,500 2,258 Climbing Denver TRACON
Mon 01:03:55 PM 39.5928 -104.5181 95° East 267 307 16,300 1,859 Climbing Denver Center
Mon 01:04:57 PM 39.6456 -104.4317 52° Northeast 284 327 17,900 1,258 Climbing Denver Center
Mon 01:05:00 PM 39.9354 -103.9389 59° Northeast  Level FlightAware Approximate
Mon 01:05:59 PM 39.6978 -104.3394 54° Northeast 317 365 18,900  Level Denver Center
Mon 01:07:01 PM 39.7550 -104.2392 53° Northeast 342 394 20,200 1,306 Climbing Denver Center
Mon 01:08:03 PM 39.8197 -104.1250 54° Northeast 365 420 21,600 1,306 Climbing Denver Center
Mon 01:09:05 PM 39.8672 -104.0017 63° Northeast 383 441 22,900 1,355 Climbing Denver Center
Mon 01:10:07 PM 39.9181 -103.8633 64° Northeast 395 455 24,400 1,500 Climbing Denver Center
Mon 01:11:09 PM 39.9678 -103.7264 65° Northeast 396 456 26,000 1,452 Climbing Denver Center
Mon 01:12:11 PM 40.0133 -103.6039 64° Northeast 392 451 27,400 1,403 Climbing Denver Center
Mon 01:13:13 PM 40.0678 -103.4533 65° Northeast 410 472 28,900 1,452 Climbing Denver Center
Mon 01:14:15 PM 40.1139 -103.3219 65° Northeast 415 478 30,400 1,484 Climbing Denver Center
Mon 01:16:19 PM 40.2183 -103.0317 65° Northeast 426 490 33,500 1,476 Climbing Denver Center
Mon 01:17:22 PM 40.2664 -102.8933 65° Northeast 433 498 35,000 1,776 Climbing Denver Center
Mon 01:18:24 PM 40.3208 -102.7342 66° East 429 494 37,200 1,935 Climbing Denver Center
Mon 01:19:26 PM 40.3678 -102.6011 65° Northeast 422 486 39,000 1,226 Climbing Denver Center
Mon 01:21:30 PM 40.4678 -102.3122 65° Northeast 421 484 41,000 645 Climbing Denver Center
Mon 01:22:32 PM 40.5233 -102.1492 66° East 435 501 41,000  Level Denver Center
Mon 01:23:34 PM 40.5747 -102.0019 65° Northeast 458 527 41,000  Level Denver Center
Mon 01:24:36 PM 40.6344 -101.8261 66° East 470 541 41,000  Level Denver Center
Mon 01:25:38 PM 40.6867 -101.6747 65° Northeast 474 545 41,000  Level Denver Center
Mon 01:26:40 PM 40.7458 -101.4978 66° East 474 545 41,000  Level Denver Center
Mon 01:27:42 PM 40.7964 -101.3450 66° East 475 547 41,000  Level Denver Center
Mon 01:28:44 PM 40.8622 -101.1739 63° Northeast 467 537 41,000  Level Denver Center
Mon 01:29:46 PM 40.9261 -101.0300 60° Northeast 468 539 41,000  Level Denver Center
Mon 01:31:50 PM 41.0658 -100.7106 60° Northeast 477 549 41,000  Level Denver Center
Mon 01:32:52 PM 41.1286 -100.5625 61° Northeast 478 550 41,000  Level Denver Center
Mon 01:33:55 PM 41.2031 -100.3900 60° Northeast 479 551 41,000  Level Denver Center
Mon 01:34:57 PM 41.2658 -100.2425 60° Northeast 480 552 41,000  Level Denver Center
Mon 01:35:59 PM 41.3394 -100.0678 61° Northeast 483 556 41,000  Level Denver Center
Mon 01:37:01 PM 41.4025 -99.9192 60° Northeast 482 555 41,000  Level Denver Center
Mon 01:38:02 PM 41.4544 -99.7939 61° Northeast 483 556 41,000  Level Denver Center
Mon 01:39:05 PM 41.5378 -99.5947 61° Northeast 487 560 41,000  Level Denver Center
Mon 01:40:07 PM 41.6039 -99.4364 61° Northeast 486 559 41,000 192 Level Denver Center
Mon 01:41:10 PM 41.6692 -99.2783 61° Northeast 484 557 41,400 484 Climbing Denver Center
Mon 01:42:11 PM 41.7333 -99.1214 61° Northeast 480 552 42,000 585 Climbing Denver Center
Mon 01:43:13 PM 41.7956 -98.9681 61° Northeast 470 541 42,600 606 Climbing Denver Center
Mon 01:43:50 PM 41.8458 -98.8464 61° Northeast 466 536 43,000 242 Climbing Minneapolis Center
Mon 01:44:52 PM 41.8625 -98.6683 83° East 483 556 43,000  Level Minneapolis Center
Mon 01:45:55 PM 41.8922 -98.4919 77° East 484 557 43,000  Level Minneapolis Center
Mon 01:46:57 PM 41.9317 -98.3208 73° East 481 554 43,000  Level Minneapolis Center
Mon 01:47:59 PM 41.9686 -98.1542 73° East 481 554 43,000  Level Minneapolis Center
Mon 01:49:01 PM 42.0072 -97.9789 73° East 485 558 43,000  Level Minneapolis Center
Mon 01:50:03 PM 42.0525 -97.7700 74° East 486 559 43,000  Level Minneapolis Center
Mon 01:51:05 PM 42.0903 -97.5944 74° East 486 559 43,000  Level Minneapolis Center
Mon 01:52:07 PM 42.1278 -97.4186 74° East 488 562 43,000  Level Minneapolis Center
Mon 01:53:09 PM 42.1647 -97.2417 74° East 487 560 43,000  Level Minneapolis Center
Mon 01:54:11 PM 42.2025 -97.0639 74° East 491 565 43,000  Level Minneapolis Center
Mon 01:55:14 PM 42.2389 -96.8881 74° East 488 562 43,000  Level Minneapolis Center
Mon 01:56:16 PM 42.2753 -96.7108 74° East 488 562 43,000  Level Minneapolis Center
Mon 01:57:18 PM 42.3186 -96.4986 74° East 488 562 43,000  Level Minneapolis Center
Mon 01:59:00 PM 42.4277 -95.8975 75° East  Level FlightAware Approximate
Mon 01:59:24 PM 42.3906 -96.1444 75° East 487 560 43,000  Level Minneapolis Center
Mon 02:00:26 PM 42.4253 -95.9658 75° East 488 562 43,000  Level Minneapolis Center
Mon 02:02:30 PM 42.5019 -95.5697 75° East 496 571 43,000  Level Minneapolis Center
Mon 02:03:32 PM 42.5375 -95.3914 75° East 491 565 43,000  Level Minneapolis Center
Mon 02:04:34 PM 42.5717 -95.2111 76° East 492 566 43,000  Level Minneapolis Center
Mon 02:05:37 PM 42.6053 -95.0311 76° East 492 566 43,000  Level Minneapolis Center
Mon 02:06:39 PM 42.6397 -94.8492 76° East 496 571 43,000  Level Minneapolis Center
Mon 02:07:41 PM 42.6742 -94.6692 75° East 493 567 43,000  Level Minneapolis Center
Mon 02:08:43 PM 42.7083 -94.4703 77° East 497 572 43,000  Level Minneapolis Center
Mon 02:09:45 PM 42.7319 -94.2872 80° East 495 570 43,000  Level Minneapolis Center
Mon 02:10:47 PM 42.7528 -94.1044 81° East 494 568 43,000  Level Minneapolis Center
Mon 02:11:49 PM 42.7736 -93.8803 83° East 500 575 43,000  Level Minneapolis Center
Mon 02:12:51 PM 42.7958 -93.6964 81° East 499 574 43,000  Level Minneapolis Center
Mon 02:13:53 PM 42.8153 -93.5122 82° East 496 571 43,000  Level Minneapolis Center
Mon 02:14:56 PM 42.8347 -93.3261 82° East 499 574 43,000  Level Minneapolis Center
Mon 02:15:58 PM 42.8528 -93.1400 82° East 500 575 43,000  Level Minneapolis Center
Mon 02:17:12 PM 42.8756 -92.9178 82° East 497 572 43,000  Level Minneapolis Center
Mon 02:18:14 PM 42.8969 -92.6947 82° East 498 573 43,000  Level Minneapolis Center
Mon 02:19:16 PM 42.9144 -92.5092 83° East 499 574 43,000  Level Minneapolis Center
Mon 02:20:18 PM 42.9286 -92.3597 83° East 499 574 43,000  Level Minneapolis Center
Mon 02:21:21 PM 42.9494 -92.1347 83° East 499 574 43,000  Level Minneapolis Center
Mon 02:22:22 PM 42.9667 -91.9461 83° East 501 577 43,000  Level Minneapolis Center
Mon 02:23:25 PM 42.9872 -91.7192 83° East 500 575 43,000  Level Minneapolis Center
Mon 02:24:27 PM 43.0031 -91.5286 83° East 500 575 43,000  Level Minneapolis Center
Mon 02:25:29 PM 43.0192 -91.3381 83° East 502 578 43,000  Level Minneapolis Center
Mon 02:26:31 PM 43.0339 -91.1503 84° East 500 575 43,000  Level Minneapolis Center
Mon 02:27:33 PM 43.0489 -90.9614 84° East 502 578 43,000  Level Minneapolis Center
Mon 02:28:35 PM 43.0611 -90.8111 84° East 501 577 43,000  Level Minneapolis Center
Mon 02:29:48 PM 43.0850 -90.5083 84° East 507 583 43,000  Level Chicago Center
Mon 02:30:50 PM 43.0989 -90.3192 84° East 504 580 43,000  Level Chicago Center
Mon 02:32:54 PM 43.1281 -89.9108 84° East 506 582 43,000  Level Chicago Center
Mon 02:33:56 PM 43.1408 -89.7208 85° East 503 579 43,000  Level Chicago Center
Mon 02:34:58 PM 43.1542 -89.5297 84° East 503 579 43,000  Level Chicago Center
Mon 02:36:00 PM 43.1661 -89.3394 85° East 503 579 43,000  Level Chicago Center
Mon 02:38:04 PM 43.1936 -88.9269 85° East 502 578 43,000  Level Chicago Center
Mon 02:39:06 PM 43.2056 -88.7364 85° East 504 580 43,000  Level Chicago Center
Mon 02:40:08 PM 43.2161 -88.5467 86° East 505 581 43,000  Level Chicago Center
Mon 02:41:10 PM 43.2269 -88.3556 85° East 510 587 43,000  Level Chicago Center
Mon 02:42:12 PM 43.2394 -88.1319 86° East 510 587 43,000  Level Chicago Center
Mon 02:43:14 PM 43.2508 -87.9394 85° East 509 586 43,000  Level Chicago Center
Mon 02:44:16 PM 43.2608 -87.7450 86° East 513 590 43,000  Level Chicago Center
Mon 02:45:18 PM 43.2708 -87.5508 86° East 512 589 43,000  Level Chicago Center
Mon 02:47:00 PM 43.2779 -87.2524 88° East  Level FlightAware Approximate
Mon 02:47:22 PM 43.2911 -87.1511 88° East 517 595 43,000  Level Chicago Center
Mon 02:48:24 PM 43.2989 -86.9572 87° East 512 589 43,000  Level Chicago Center
Mon 02:49:26 PM 43.3083 -86.7614 86° East 513 590 43,000  Level Chicago Center
Mon 02:50:28 PM 43.3186 -86.5250 86° East 516 594 43,000  Level Chicago Center
Mon 02:52:33 PM 43.3347 -86.1306 87° East 516 594 43,000  Level Chicago Center
Mon 02:53:35 PM 43.3417 -85.9308 87° East 517 595 43,000  Level Chicago Center
Mon 02:54:37 PM 43.3486 -85.7311 87° East 517 595 43,000  Level Chicago Center
Mon 02:55:39 PM 43.3550 -85.5333 87° East 516 594 43,000  Level Chicago Center
Mon 02:57:16 PM 43.3639 -85.2097 88° East 526 605 43,000  Level Cleveland Center
Mon 02:58:16 PM 43.3694 -85.0131 88° East 520 598 43,000  Level Cleveland Center
Mon 02:59:16 PM 43.3747 -84.8164 88° East 515 593 43,000  Level Cleveland Center
Mon 03:00:16 PM 43.3797 -84.6167 88° East 515 593 43,000  Level Cleveland Center
Mon 03:00:49 PM 43.3844 -84.5053 87° East 523 602 43,000  Level Chicago Center
Mon 03:01:51 PM 43.3892 -84.3069 88° East 520 598 43,000  Level Chicago Center
Mon 03:02:54 PM 43.3939 -84.1081 88° East 521 600 43,000  Level Chicago Center
Mon 03:03:38 PM 43.3833 -83.9167 94° East 520 598 43,000  Level Toronto Center
Mon 03:04:16 PM 43.3947 -83.8061 82° East 515 593 43,000  Level Cleveland Center
Mon 03:05:16 PM 43.3981 -83.6089 89° East 515 593 43,000  Level Cleveland Center
Mon 03:06:16 PM 43.4008 -83.4092 89° East 515 593 43,000  Level Cleveland Center
Mon 03:07:16 PM 43.4031 -83.2347 89° East 515 593 43,000  Level Cleveland Center
Mon 03:08:16 PM 43.4053 -83.0319 89° East 515 593 43,000  Level Cleveland Center
Mon 03:09:16 PM 43.4072 -82.8350 89° East 515 593 43,000  Level Cleveland Center
Mon 03:10:16 PM 43.4089 -82.6319 89° East 515 593 43,000  Level Cleveland Center
Mon 03:11:16 PM 43.4103 -82.4292 89° East 520 598 43,000  Level Cleveland Center
Mon 03:12:16 PM 43.4111 -82.2292 90° East 520 598 43,000  Level Cleveland Center
Mon 03:13:16 PM 43.4139 -82.0264 89° East 520 598 43,000  Level Cleveland Center
Mon 03:14:38 PM 43.4000 -81.7167 93° East 530 610 43,000 -380 Level Toronto Center
Mon 03:15:38 PM 43.4000 -81.5167 90° East 530 610 42,100 -1,200 Descending Toronto Center
Mon 03:16:38 PM 43.4000 -81.3000 90° East 510 587 40,600 -1,500 Descending Toronto Center
Mon 03:17:38 PM 43.4000 -81.1167 90° East 510 587 39,100 -1,550 Descending Toronto Center
Mon 03:18:38 PM 43.3833 -80.9167 96° East 530 610 37,500 -1,500 Descending Toronto Center
Mon 03:19:38 PM 43.4000 -80.7167 83° East 540 621 36,100 -1,500 Descending Toronto Center
Mon 03:20:38 PM 43.4000 -80.5000 90° East 540 621 34,500 -1,550 Descending Toronto Center
Mon 03:21:38 PM 43.4000 -80.3000 90° East 540 621 33,000 -1,450 Descending Toronto Center
Mon 03:22:38 PM 43.3833 -80.1000 96° East 540 621 31,600 -1,500 Descending Toronto Center
Mon 03:23:38 PM 43.3833 -79.8833 90° East 540 621 30,000 -1,550 Descending Toronto Center
Mon 03:24:38 PM 43.3833 -79.6833 90° East 540 621 28,500 -1,500 Descending Toronto Center
Mon 03:25:38 PM 43.3833 -79.4667 90° East 530 610 27,000 -750 Descending Toronto Center
Mon 03:26:38 PM 43.3833 -79.2833 90° East 520 598 27,000  Level Toronto Center
Mon 03:27:38 PM 43.3667 -79.0833 96° East 500 575 27,000  Level Toronto Center
Mon 03:28:38 PM 43.3667 -78.9000 90° East 500 575 27,000  Level Toronto Center
Mon 03:29:38 PM 43.3667 -78.7167 90° East 490 564 27,000  Level Toronto Center
Mon 03:30:38 PM 43.3667 -78.5333 90° East 490 564 27,000  Level Toronto Center
Mon 03:31:52 PM 43.3611 -78.3075 92° East 492 566 27,000 -90 Level Cleveland Center
Mon 03:32:52 PM 43.3531 -78.1194 93° East 492 566 26,800 -850 Descending Cleveland Center
Mon 03:33:52 PM 43.3469 -77.9311 92° East 492 566 25,300 -1,500 Descending Cleveland Center
Mon 03:34:52 PM 43.3403 -77.7372 93° East 497 572 23,800 -1,500 Descending Cleveland Center
Mon 03:35:52 PM 43.3333 -77.5492 93° East 497 572 22,300 -1,350 Descending Cleveland Center
Mon 03:36:52 PM 43.3308 -77.3839 91° East 492 566 21,100 -1,518 Descending Cleveland Center
Mon 03:38:38 PM 43.3167 -77.0167 93° East 470 541 18,100 -1,590 Descending Toronto Center
Mon 03:39:38 PM 43.3000 -76.8667 99° East 450 518 16,700 -1,500 Descending Toronto Center
Mon 03:40:38 PM 43.3000 -76.7000 90° East 420 483 15,100 -1,500 Descending Toronto Center
Mon 03:41:38 PM 43.3000 -76.5667 90° East 380 437 13,700 -1,517 Descending Toronto Center
Mon 03:43:32 PM 43.3031 -76.3350 89° East 349 402 10,700 -1,345 Descending Boston Center
Mon 03:44:32 PM 43.2947 -76.2117 95° East 349 402 9,800 -950 Descending Boston Center
Mon 03:45:32 PM 43.3067 -76.1039 81° East 308 354 8,800 -1,182 Descending Boston Center
Mon 03:46:44 PM 43.3225 -75.9964 79° East 290 334 7,200 -1,682 Descending Boston Center
Mon 03:47:44 PM 43.3386 -75.8775 79° East 269 310 5,100 -1,850 Descending Boston Center
Mon 03:48:44 PM 43.3561 -75.7842 76° East 263 303 3,500 -850 Descending Boston Center
Mon 03:49:44 PM 43.3728 -75.7081 73° East 231 266 3,400 -100 Descending Boston Center
Mon 03:50:44 PM 43.3853 -75.6314 77° East 213 245 3,300 -383 Descending Boston Center
Mon 03:52:05 PM 43.3392 -75.5633 133° Southeast 177 204 2,500 -409 Descending Boston Center
Mon 03:52:56 PM 43.3153 -75.5222 129° Southeast 166 191 2,400 -378 Descending Boston Center
Mon 03:53:56 PM 43.2892 -75.4867 135° Southeast 153 176 1,800 -687 Descending Boston Center
Mon 03:55:07 PM 43.2589 -75.4508 139° Southeast 128 147 900 -545 Descending Boston Center
Mon 03:56:08 PM 43.2389 -75.4158 128° Southeast 135 155 600 4,512 Descending Boston Center
Mon 03:57:08 PM 43.2089 -75.3714 133° Southeast 135 155 10,000 9,400 Climbing Boston Center
Mon 03:59:00 PM 43.2333 -75.4000 324° Northwest  Level FlightAware Approximate
Mon 04:06:00 PM 43.2338 -75.4070 324° Northwest  Level Estimated
Mon 04:07:00 PM 43.2333 -75.4000 324° Northwest  Level FlightAware Approximate
Mon 04:08:00 PM 43.2338 -75.4070 324° Northwest  Level Estimated
Mon 04:09:00 PM 43.2333 -75.4000 324° Northwest  Level FlightAware Approximate
Mon 04:10:00 PM 43.2338 -75.4070 324° Northwest  Level Estimated

Login

Don't have an account? Register now (free) for customized features, flight alerts, and more!